sensor_id;sensor_type;location;lat;lon;timestamp;temperature;humidity
65369;HTU21D;51970;53.484;49.488;2023-09-07T00:00:44;18.06;64.63
65369;HTU21D;51970;53.484;49.488;2023-09-07T00:03:11;17.98;64.83
65369;HTU21D;51970;53.484;49.488;2023-09-07T00:05:37;17.92;64.66
65369;HTU21D;51970;53.484;49.488;2023-09-07T00:08:03;17.91;64.59
65369;HTU21D;51970;53.484;49.488;2023-09-07T00:10:29;17.83;64.40
65369;HTU21D;51970;53.484;49.488;2023-09-07T00:12:55;17.79;64.18
65369;HTU21D;51970;53.484;49.488;2023-09-07T00:15:22;17.81;63.84
65369;HTU21D;51970;53.484;49.488;2023-09-07T00:17:49;17.82;63.90
65369;HTU21D;51970;53.484;49.488;2023-09-07T00:20:17;17.74;64.24
65369;HTU21D;51970;53.484;49.488;2023-09-07T00:22:45;17.63;64.57
65369;HTU21D;51970;53.484;49.488;2023-09-07T00:25:11;17.62;64.29
65369;HTU21D;51970;53.484;49.488;2023-09-07T00:27:37;17.63;64.07
65369;HTU21D;51970;53.484;49.488;2023-09-07T00:30:04;17.56;64.21
65369;HTU21D;51970;53.484;49.488;2023-09-07T00:32:32;17.52;64.47
65369;HTU21D;51970;53.484;49.488;2023-09-07T00:34:59;17.51;64.37
65369;HTU21D;51970;53.484;49.488;2023-09-07T00:37:26;17.46;64.74
65369;HTU21D;51970;53.484;49.488;2023-09-07T00:39:52;17.40;64.84
65369;HTU21D;51970;53.484;49.488;2023-09-07T00:42:18;17.38;64.88
65369;HTU21D;51970;53.484;49.488;2023-09-07T00:44:45;17.36;65.11
65369;HTU21D;51970;53.484;49.488;2023-09-07T00:47:11;17.34;65.22
65369;HTU21D;51970;53.484;49.488;2023-09-07T00:49:38;17.32;65.00
65369;HTU21D;51970;53.484;49.488;2023-09-07T00:52:05;17.31;65.11
65369;HTU21D;51970;53.484;49.488;2023-09-07T00:54:33;17.29;64.99
65369;HTU21D;51970;53.484;49.488;2023-09-07T00:57:00;17.31;64.81
65369;HTU21D;51970;53.484;49.488;2023-09-07T00:59:27;17.30;64.96
65369;HTU21D;51970;53.484;49.488;2023-09-07T01:01:53;17.29;64.75
65369;HTU21D;51970;53.484;49.488;2023-09-07T01:04:19;17.32;64.18
65369;HTU21D;51970;53.484;49.488;2023-09-07T01:06:56;17.36;64.02
65369;HTU21D;51970;53.484;49.488;2023-09-07T01:09:24;17.38;64.11
65369;HTU21D;51970;53.484;49.488;2023-09-07T01:11:52;17.40;63.47
65369;HTU21D;51970;53.484;49.488;2023-09-07T01:14:19;17.40;63.58
65369;HTU21D;51970;53.484;49.488;2023-09-07T01:16:45;17.39;63.20
65369;HTU21D;51970;53.484;49.488;2023-09-07T01:19:11;17.38;62.97
65369;HTU21D;51970;53.484;49.488;2023-09-07T01:21:38;17.38;63.02
65369;HTU21D;51970;53.484;49.488;2023-09-07T01:24:09;17.38;63.02
65369;HTU21D;51970;53.484;49.488;2023-09-07T01:26:36;17.34;63.27
65369;HTU21D;51970;53.484;49.488;2023-09-07T01:29:05;17.35;63.18
65369;HTU21D;51970;53.484;49.488;2023-09-07T01:31:36;17.33;63.40
65369;HTU21D;51970;53.484;49.488;2023-09-07T01:34:02;17.31;63.54
65369;HTU21D;51970;53.484;49.488;2023-09-07T01:36:29;17.32;63.40
65369;HTU21D;51970;53.484;49.488;2023-09-07T01:38:55;17.29;63.63
65369;HTU21D;51970;53.484;49.488;2023-09-07T01:41:21;17.26;63.80
65369;HTU21D;51970;53.484;49.488;2023-09-07T01:43:48;17.30;63.74
65369;HTU21D;51970;53.484;49.488;2023-09-07T01:46:14;17.28;63.88
65369;HTU21D;51970;53.484;49.488;2023-09-07T01:48:40;17.26;63.82
65369;HTU21D;51970;53.484;49.488;2023-09-07T01:51:08;17.25;64.17
65369;HTU21D;51970;53.484;49.488;2023-09-07T01:53:34;17.26;63.95
65369;HTU21D;51970;53.484;49.488;2023-09-07T01:56:01;17.26;64.03
65369;HTU21D;51970;53.484;49.488;2023-09-07T01:58:27;17.26;64.26
65369;HTU21D;51970;53.484;49.488;2023-09-07T02:00:57;17.21;64.88
65369;HTU21D;51970;53.484;49.488;2023-09-07T02:03:24;17.18;65.63
65369;HTU21D;51970;53.484;49.488;2023-09-07T02:05:52;17.13;65.96
65369;HTU21D;51970;53.484;49.488;2023-09-07T02:08:19;17.03;69.09
65369;HTU21D;51970;53.484;49.488;2023-09-07T02:10:45;16.54;75.57
65369;HTU21D;51970;53.484;49.488;2023-09-07T02:13:11;16.05;80.35
65369;HTU21D;51970;53.484;49.488;2023-09-07T02:15:40;15.80;81.94
65369;HTU21D;51970;53.484;49.488;2023-09-07T02:18:07;15.61;82.36
65369;HTU21D;51970;53.484;49.488;2023-09-07T02:20:33;15.52;84.26
65369;HTU21D;51970;53.484;49.488;2023-09-07T02:23:01;15.37;85.63
65369;HTU21D;51970;53.484;49.488;2023-09-07T02:25:28;15.23;85.75
65369;HTU21D;51970;53.484;49.488;2023-09-07T02:27:56;15.21;86.25
65369;HTU21D;51970;53.484;49.488;2023-09-07T02:30:22;15.19;85.94
65369;HTU21D;51970;53.484;49.488;2023-09-07T02:32:49;15.16;86.67
65369;HTU21D;51970;53.484;49.488;2023-09-07T02:35:15;15.11;86.94
65369;HTU21D;51970;53.484;49.488;2023-09-07T02:37:41;15.08;87.55
65369;HTU21D;51970;53.484;49.488;2023-09-07T02:40:08;15.08;87.79
65369;HTU21D;51970;53.484;49.488;2023-09-07T02:42:34;15.11;87.09
65369;HTU21D;51970;53.484;49.488;2023-09-07T02:45:01;15.17;87.65
65369;HTU21D;51970;53.484;49.488;2023-09-07T02:47:27;15.25;88.44
65369;HTU21D;51970;53.484;49.488;2023-09-07T02:49:53;15.28;86.04
65369;HTU21D;51970;53.484;49.488;2023-09-07T02:52:19;15.33;85.63
65369;HTU21D;51970;53.484;49.488;2023-09-07T02:54:46;15.45;86.13
65369;HTU21D;51970;53.484;49.488;2023-09-07T02:57:12;15.47;85.55
65369;HTU21D;51970;53.484;49.488;2023-09-07T02:59:38;15.44;84.13
65369;HTU21D;51970;53.484;49.488;2023-09-07T03:02:05;15.45;84.60
65369;HTU21D;51970;53.484;49.488;2023-09-07T03:04:32;15.45;84.67
65369;HTU21D;51970;53.484;49.488;2023-09-07T03:07:00;15.46;84.87
65369;HTU21D;51970;53.484;49.488;2023-09-07T03:09:27;15.44;84.47
65369;HTU21D;51970;53.484;49.488;2023-09-07T03:11:53;15.40;85.32
65369;HTU21D;51970;53.484;49.488;2023-09-07T03:14:20;15.34;85.55
65369;HTU21D;51970;53.484;49.488;2023-09-07T03:16:46;15.25;85.79
65369;HTU21D;51970;53.484;49.488;2023-09-07T03:19:16;15.21;86.38
65369;HTU21D;51970;53.484;49.488;2023-09-07T03:21:42;14.97;87.97
65369;HTU21D;51970;53.484;49.488;2023-09-07T03:24:08;14.73;90.29
65369;HTU21D;51970;53.484;49.488;2023-09-07T03:26:34;14.54;91.72
65369;HTU21D;51970;53.484;49.488;2023-09-07T03:29:00;14.37;92.79
65369;HTU21D;51970;53.484;49.488;2023-09-07T03:31:26;14.32;93.91
65369;HTU21D;51970;53.484;49.488;2023-09-07T03:33:52;14.29;94.41
65369;HTU21D;51970;53.484;49.488;2023-09-07T03:36:18;14.28;94.76
65369;HTU21D;51970;53.484;49.488;2023-09-07T03:38:44;14.09;94.88
65369;HTU21D;51970;53.484;49.488;2023-09-07T03:41:10;13.93;95.03
65369;HTU21D;51970;53.484;49.488;2023-09-07T03:43:36;13.69;94.92
65369;HTU21D;51970;53.484;49.488;2023-09-07T03:46:02;13.56;95.02
65369;HTU21D;51970;53.484;49.488;2023-09-07T03:48:28;13.52;95.08
65369;HTU21D;51970;53.484;49.488;2023-09-07T03:50:54;13.58;95.31
65369;HTU21D;51970;53.484;49.488;2023-09-07T03:53:20;13.38;95.16
65369;HTU21D;51970;53.484;49.488;2023-09-07T03:55:46;13.14;94.84
65369;HTU21D;51970;53.484;49.488;2023-09-07T03:58:12;13.05;95.09
65369;HTU21D;51970;53.484;49.488;2023-09-07T04:00:39;13.12;95.38
65369;HTU21D;51970;53.484;49.488;2023-09-07T04:03:08;13.19;95.54
65369;HTU21D;51970;53.484;49.488;2023-09-07T04:05:37;13.23;95.65
65369;HTU21D;51970;53.484;49.488;2023-09-07T04:08:03;13.24;95.61
65369;HTU21D;51970;53.484;49.488;2023-09-07T04:10:29;13.15;95.42
65369;HTU21D;51970;53.484;49.488;2023-09-07T04:12:55;13.22;95.55
65369;HTU21D;51970;53.484;49.488;2023-09-07T04:15:22;13.15;95.08
65369;HTU21D;51970;53.484;49.488;2023-09-07T04:17:50;13.17;94.78
65369;HTU21D;51970;53.484;49.488;2023-09-07T04:20:16;13.22;94.48
65369;HTU21D;51970;53.484;49.488;2023-09-07T04:22:43;13.23;93.51
65369;HTU21D;51970;53.484;49.488;2023-09-07T04:25:09;13.18;91.54
65369;HTU21D;51970;53.484;49.488;2023-09-07T04:27:35;13.25;91.40
65369;HTU21D;51970;53.484;49.488;2023-09-07T04:30:01;13.25;90.05
65369;HTU21D;51970;53.484;49.488;2023-09-07T04:32:28;13.25;89.50
65369;HTU21D;51970;53.484;49.488;2023-09-07T04:34:57;13.31;90.32
65369;HTU21D;51970;53.484;49.488;2023-09-07T04:37:25;13.34;90.17
65369;HTU21D;51970;53.484;49.488;2023-09-07T04:39:52;13.29;89.28
65369;HTU21D;51970;53.484;49.488;2023-09-07T04:42:20;13.29;89.25
65369;HTU21D;51970;53.484;49.488;2023-09-07T04:44:46;13.29;88.13
65369;HTU21D;51970;53.484;49.488;2023-09-07T04:47:13;13.31;87.03
65369;HTU21D;51970;53.484;49.488;2023-09-07T04:49:41;13.45;85.22
65369;HTU21D;51970;53.484;49.488;2023-09-07T04:52:07;13.62;84.67
65369;HTU21D;51970;53.484;49.488;2023-09-07T04:54:35;13.61;84.88
65369;HTU21D;51970;53.484;49.488;2023-09-07T04:57:01;13.65;82.74
65369;HTU21D;51970;53.484;49.488;2023-09-07T04:59:27;13.69;83.52
65369;HTU21D;51970;53.484;49.488;2023-09-07T05:01:53;13.80;82.84
65369;HTU21D;51970;53.484;49.488;2023-09-07T05:04:19;13.91;83.00
65369;HTU21D;51970;53.484;49.488;2023-09-07T05:06:45;14.06;81.70
65369;HTU21D;51970;53.484;49.488;2023-09-07T05:09:12;14.25;80.79
65369;HTU21D;51970;53.484;49.488;2023-09-07T05:11:39;14.30;80.17
65369;HTU21D;51970;53.484;49.488;2023-09-07T05:14:05;14.33;79.94
65369;HTU21D;51970;53.484;49.488;2023-09-07T05:16:31;14.36;79.98
65369;HTU21D;51970;53.484;49.488;2023-09-07T05:18:57;14.37;78.98
65369;HTU21D;51970;53.484;49.488;2023-09-07T05:21:23;14.45;77.60
65369;HTU21D;51970;53.484;49.488;2023-09-07T05:23:49;14.51;78.61
65369;HTU21D;51970;53.484;49.488;2023-09-07T05:26:21;14.55;76.82
65369;HTU21D;51970;53.484;49.488;2023-09-07T05:28:48;14.60;76.91
65369;HTU21D;51970;53.484;49.488;2023-09-07T05:31:14;14.79;76.86
65369;HTU21D;51970;53.484;49.488;2023-09-07T05:33:40;15.07;76.10
65369;HTU21D;51970;53.484;49.488;2023-09-07T05:36:07;15.37;73.42
65369;HTU21D;51970;53.484;49.488;2023-09-07T05:38:33;15.42;72.52
65369;HTU21D;51970;53.484;49.488;2023-09-07T05:40:59;15.14;73.20
65369;HTU21D;51970;53.484;49.488;2023-09-07T05:43:26;15.13;74.57
65369;HTU21D;51970;53.484;49.488;2023-09-07T05:45:52;15.08;73.03
65369;HTU21D;51970;53.484;49.488;2023-09-07T05:48:18;15.00;73.02
65369;HTU21D;51970;53.484;49.488;2023-09-07T05:50:45;14.95;72.93
65369;HTU21D;51970;53.484;49.488;2023-09-07T05:53:11;14.94;71.68
65369;HTU21D;51970;53.484;49.488;2023-09-07T05:55:37;15.02;72.13
65369;HTU21D;51970;53.484;49.488;2023-09-07T05:58:05;15.22;71.64
65369;HTU21D;51970;53.484;49.488;2023-09-07T06:00:32;15.63;70.38
65369;HTU21D;51970;53.484;49.488;2023-09-07T06:02:59;15.74;68.32
65369;HTU21D;51970;53.484;49.488;2023-09-07T06:05:25;16.08;67.42
65369;HTU21D;51970;53.484;49.488;2023-09-07T06:07:52;16.13;67.15
65369;HTU21D;51970;53.484;49.488;2023-09-07T06:10:18;16.22;65.56
65369;HTU21D;51970;53.484;49.488;2023-09-07T06:12:45;16.01;64.22
65369;HTU21D;51970;53.484;49.488;2023-09-07T06:15:11;16.14;64.69
65369;HTU21D;51970;53.484;49.488;2023-09-07T06:17:38;16.28;64.01
65369;HTU21D;51970;53.484;49.488;2023-09-07T06:20:05;16.07;64.13
65369;HTU21D;51970;53.484;49.488;2023-09-07T06:22:31;15.99;65.06
65369;HTU21D;51970;53.484;49.488;2023-09-07T06:24:57;16.32;62.00
65369;HTU21D;51970;53.484;49.488;2023-09-07T06:27:23;16.12;60.15
65369;HTU21D;51970;53.484;49.488;2023-09-07T06:29:49;15.82;64.03
65369;HTU21D;51970;53.484;49.488;2023-09-07T06:32:16;15.86;63.56
65369;HTU21D;51970;53.484;49.488;2023-09-07T06:34:42;16.41;60.29
65369;HTU21D;51970;53.484;49.488;2023-09-07T06:37:08;16.46;58.93
65369;HTU21D;51970;53.484;49.488;2023-09-07T06:39:34;16.61;58.86
65369;HTU21D;51970;53.484;49.488;2023-09-07T06:42:00;16.66;60.02
65369;HTU21D;51970;53.484;49.488;2023-09-07T06:44:26;16.49;60.02
65369;HTU21D;51970;53.484;49.488;2023-09-07T06:46:52;16.36;59.82
65369;HTU21D;51970;53.484;49.488;2023-09-07T06:49:19;16.32;60.98
65369;HTU21D;51970;53.484;49.488;2023-09-07T06:51:45;16.25;61.11
65369;HTU21D;51970;53.484;49.488;2023-09-07T06:54:11;16.22;61.72
65369;HTU21D;51970;53.484;49.488;2023-09-07T06:56:38;16.39;62.01
65369;HTU21D;51970;53.484;49.488;2023-09-07T06:59:05;16.22;59.67
65369;HTU21D;51970;53.484;49.488;2023-09-07T07:01:32;16.50;59.88
65369;HTU21D;51970;53.484;49.488;2023-09-07T07:03:58;16.39;60.22
65369;HTU21D;51970;53.484;49.488;2023-09-07T07:06:24;16.25;61.76
65369;HTU21D;51970;53.484;49.488;2023-09-07T07:08:51;15.90;61.02
65369;HTU21D;51970;53.484;49.488;2023-09-07T07:11:17;15.70;62.89
65369;HTU21D;51970;53.484;49.488;2023-09-07T07:13:43;15.76;62.21
65369;HTU21D;51970;53.484;49.488;2023-09-07T07:16:09;16.10;61.83
65369;HTU21D;51970;53.484;49.488;2023-09-07T07:18:35;16.88;59.54
65369;HTU21D;51970;53.484;49.488;2023-09-07T07:21:02;17.31;56.44
65369;HTU21D;51970;53.484;49.488;2023-09-07T07:23:28;16.55;59.38
65369;HTU21D;51970;53.484;49.488;2023-09-07T07:25:54;15.90;61.03
65369;HTU21D;51970;53.484;49.488;2023-09-07T07:28:21;16.33;60.57
65369;HTU21D;51970;53.484;49.488;2023-09-07T07:30:47;16.90;56.77
65369;HTU21D;51970;53.484;49.488;2023-09-07T07:33:14;17.17;55.71
65369;HTU21D;51970;53.484;49.488;2023-09-07T07:35:40;17.03;57.03
65369;HTU21D;51970;53.484;49.488;2023-09-07T07:38:07;16.85;58.11
65369;HTU21D;51970;53.484;49.488;2023-09-07T07:40:34;16.69;58.13
65369;HTU21D;51970;53.484;49.488;2023-09-07T07:43:00;16.50;58.00
65369;HTU21D;51970;53.484;49.488;2023-09-07T07:45:26;16.81;58.38
65369;HTU21D;51970;53.484;49.488;2023-09-07T07:47:53;17.31;56.82
65369;HTU21D;51970;53.484;49.488;2023-09-07T07:50:19;17.10;55.37
65369;HTU21D;51970;53.484;49.488;2023-09-07T07:52:46;17.04;56.46
65369;HTU21D;51970;53.484;49.488;2023-09-07T07:55:12;17.31;55.50
65369;HTU21D;51970;53.484;49.488;2023-09-07T07:57:38;17.40;53.39
65369;HTU21D;51970;53.484;49.488;2023-09-07T08:00:05;17.20;53.76
65369;HTU21D;51970;53.484;49.488;2023-09-07T08:02:32;17.21;53.68
65369;HTU21D;51970;53.484;49.488;2023-09-07T08:04:59;17.46;52.70
65369;HTU21D;51970;53.484;49.488;2023-09-07T08:07:25;17.24;53.14
65369;HTU21D;51970;53.484;49.488;2023-09-07T08:09:52;16.63;56.81
65369;HTU21D;51970;53.484;49.488;2023-09-07T08:12:19;16.22;57.01
65369;HTU21D;51970;53.484;49.488;2023-09-07T08:14:45;16.52;56.94
65369;HTU21D;51970;53.484;49.488;2023-09-07T08:17:12;17.03;54.78
65369;HTU21D;51970;53.484;49.488;2023-09-07T08:19:38;17.35;53.10
65369;HTU21D;51970;53.484;49.488;2023-09-07T08:22:05;17.24;53.24
65369;HTU21D;51970;53.484;49.488;2023-09-07T08:24:32;17.13;54.20
65369;HTU21D;51970;53.484;49.488;2023-09-07T08:26:58;16.81;55.16
65369;HTU21D;51970;53.484;49.488;2023-09-07T08:29:26;16.57;55.61
65369;HTU21D;51970;53.484;49.488;2023-09-07T08:31:53;16.42;55.65
65369;HTU21D;51970;53.484;49.488;2023-09-07T08:34:20;16.57;55.62
65369;HTU21D;51970;53.484;49.488;2023-09-07T08:36:48;16.54;55.31
65369;HTU21D;51970;53.484;49.488;2023-09-07T08:39:16;16.58;56.19
65369;HTU21D;51970;53.484;49.488;2023-09-07T08:41:43;16.51;54.07
65369;HTU21D;51970;53.484;49.488;2023-09-07T08:44:11;16.30;53.94
65369;HTU21D;51970;53.484;49.488;2023-09-07T08:46:38;16.48;53.70
65369;HTU21D;51970;53.484;49.488;2023-09-07T08:49:04;16.81;53.34
65369;HTU21D;51970;53.484;49.488;2023-09-07T08:51:31;16.73;52.41
65369;HTU21D;51970;53.484;49.488;2023-09-07T08:54:02;17.22;51.43
65369;HTU21D;51970;53.484;49.488;2023-09-07T08:56:29;17.13;50.53
65369;HTU21D;51970;53.484;49.488;2023-09-07T08:58:56;17.25;50.59
65369;HTU21D;51970;53.484;49.488;2023-09-07T09:01:22;17.03;50.94
65369;HTU21D;51970;53.484;49.488;2023-09-07T09:03:49;16.56;51.71
65369;HTU21D;51970;53.484;49.488;2023-09-07T09:06:21;16.54;49.74
65369;HTU21D;51970;53.484;49.488;2023-09-07T09:08:52;16.27;50.69
65369;HTU21D;51970;53.484;49.488;2023-09-07T09:11:20;16.50;50.68
65369;HTU21D;51970;53.484;49.488;2023-09-07T09:13:47;16.79;48.05
65369;HTU21D;51970;53.484;49.488;2023-09-07T09:16:14;17.04;48.15
65369;HTU21D;51970;53.484;49.488;2023-09-07T09:18:51;17.31;48.25
65369;HTU21D;51970;53.484;49.488;2023-09-07T09:21:19;17.10;48.27
65369;HTU21D;51970;53.484;49.488;2023-09-07T09:23:50;16.55;49.96
65369;HTU21D;51970;53.484;49.488;2023-09-07T09:26:16;16.74;49.29
65369;HTU21D;51970;53.484;49.488;2023-09-07T09:28:43;17.07;48.82
65369;HTU21D;51970;53.484;49.488;2023-09-07T09:31:13;16.89;48.60
65369;HTU21D;51970;53.484;49.488;2023-09-07T09:33:40;16.66;48.18
65369;HTU21D;51970;53.484;49.488;2023-09-07T09:36:07;16.90;49.11
65369;HTU21D;51970;53.484;49.488;2023-09-07T09:38:34;17.18;47.74
65369;HTU21D;51970;53.484;49.488;2023-09-07T09:41:01;17.17;48.92
65369;HTU21D;51970;53.484;49.488;2023-09-07T09:43:29;17.70;47.89
65369;HTU21D;51970;53.484;49.488;2023-09-07T09:45:55;17.47;48.79
65369;HTU21D;51970;53.484;49.488;2023-09-07T09:48:22;17.64;48.28
65369;HTU21D;51970;53.484;49.488;2023-09-07T09:50:49;17.48;48.55
65369;HTU21D;51970;53.484;49.488;2023-09-07T09:53:16;17.15;49.85
65369;HTU21D;51970;53.484;49.488;2023-09-07T09:55:48;17.24;49.82
65369;HTU21D;51970;53.484;49.488;2023-09-07T09:58:14;17.21;49.26
65369;HTU21D;51970;53.484;49.488;2023-09-07T10:00:43;17.13;49.43
65369;HTU21D;51970;53.484;49.488;2023-09-07T10:03:32;16.84;50.89
65369;HTU21D;51970;53.484;49.488;2023-09-07T10:06:17;17.09;50.20
65369;HTU21D;51970;53.484;49.488;2023-09-07T10:09:06;17.34;49.43
65369;HTU21D;51970;53.484;49.488;2023-09-07T10:11:34;16.90;51.12
65369;HTU21D;51970;53.484;49.488;2023-09-07T10:14:04;16.96;50.53
65369;HTU21D;51970;53.484;49.488;2023-09-07T10:16:48;16.77;51.20
65369;HTU21D;51970;53.484;49.488;2023-09-07T10:19:16;16.80;51.68
65369;HTU21D;51970;53.484;49.488;2023-09-07T10:21:44;16.86;51.14
65369;HTU21D;51970;53.484;49.488;2023-09-07T10:24:10;17.15;50.87
65369;HTU21D;51970;53.484;49.488;2023-09-07T10:26:37;17.25;49.81
65369;HTU21D;51970;53.484;49.488;2023-09-07T10:29:03;17.15;49.94
65369;HTU21D;51970;53.484;49.488;2023-09-07T10:31:31;17.23;50.06
65369;HTU21D;51970;53.484;49.488;2023-09-07T10:34:08;17.07;50.57
65369;HTU21D;51970;53.484;49.488;2023-09-07T10:36:35;16.90;50.86
65369;HTU21D;51970;53.484;49.488;2023-09-07T10:39:03;16.49;52.09
65369;HTU21D;51970;53.484;49.488;2023-09-07T10:41:42;16.64;52.23
65369;HTU21D;51970;53.484;49.488;2023-09-07T10:44:09;16.88;51.53
65369;HTU21D;51970;53.484;49.488;2023-09-07T10:46:40;16.66;50.91
65369;HTU21D;51970;53.484;49.488;2023-09-07T10:49:11;16.19;52.15
65369;HTU21D;51970;53.484;49.488;2023-09-07T10:51:43;16.27;51.69
65369;HTU21D;51970;53.484;49.488;2023-09-07T10:54:17;16.21;51.10
65369;HTU21D;51970;53.484;49.488;2023-09-07T10:56:45;16.31;51.15
65369;HTU21D;51970;53.484;49.488;2023-09-07T10:59:13;16.65;51.35
65369;HTU21D;51970;53.484;49.488;2023-09-07T11:01:39;16.84;49.68
65369;HTU21D;51970;53.484;49.488;2023-09-07T11:04:06;16.54;50.50
65369;HTU21D;51970;53.484;49.488;2023-09-07T11:06:34;16.29;50.71
65369;HTU21D;51970;53.484;49.488;2023-09-07T11:09:02;15.98;51.73
65369;HTU21D;51970;53.484;49.488;2023-09-07T11:11:34;16.17;50.97
65369;HTU21D;51970;53.484;49.488;2023-09-07T11:14:05;16.22;51.33
65369;HTU21D;51970;53.484;49.488;2023-09-07T11:16:33;16.18;51.08
65369;HTU21D;51970;53.484;49.488;2023-09-07T11:19:06;16.10;50.72
65369;HTU21D;51970;53.484;49.488;2023-09-07T11:21:34;16.34;50.37
65369;HTU21D;51970;53.484;49.488;2023-09-07T11:24:02;16.14;50.02
65369;HTU21D;51970;53.484;49.488;2023-09-07T11:26:44;15.88;50.23
65369;HTU21D;51970;53.484;49.488;2023-09-07T11:29:17;15.90;50.62
65369;HTU21D;51970;53.484;49.488;2023-09-07T11:31:45;15.86;49.68
65369;HTU21D;51970;53.484;49.488;2023-09-07T11:34:12;15.74;49.50
65369;HTU21D;51970;53.484;49.488;2023-09-07T11:36:43;15.93;48.46
65369;HTU21D;51970;53.484;49.488;2023-09-07T11:39:10;15.96;48.12
65369;HTU21D;51970;53.484;49.488;2023-09-07T11:41:44;16.13;47.73
65369;HTU21D;51970;53.484;49.488;2023-09-07T11:44:11;16.19;46.80
65369;HTU21D;51970;53.484;49.488;2023-09-07T11:46:38;16.02;47.68
65369;HTU21D;51970;53.484;49.488;2023-09-07T11:49:04;16.04;47.79
65369;HTU21D;51970;53.484;49.488;2023-09-07T11:51:31;15.96;48.45
65369;HTU21D;51970;53.484;49.488;2023-09-07T11:53:58;16.18;48.50
65369;HTU21D;51970;53.484;49.488;2023-09-07T11:56:25;16.06;49.41
65369;HTU21D;51970;53.484;49.488;2023-09-07T11:58:51;16.07;49.97
65369;HTU21D;51970;53.484;49.488;2023-09-07T12:01:18;15.99;50.20
65369;HTU21D;51970;53.484;49.488;2023-09-07T12:03:44;15.91;50.17
65369;HTU21D;51970;53.484;49.488;2023-09-07T12:06:11;15.76;50.80
65369;HTU21D;51970;53.484;49.488;2023-09-07T12:08:42;15.69;51.04
65369;HTU21D;51970;53.484;49.488;2023-09-07T12:11:08;15.80;51.32
65369;HTU21D;51970;53.484;49.488;2023-09-07T12:13:35;15.95;51.27
65369;HTU21D;51970;53.484;49.488;2023-09-07T12:16:01;16.01;50.84
65369;HTU21D;51970;53.484;49.488;2023-09-07T12:18:28;15.75;51.24
65369;HTU21D;51970;53.484;49.488;2023-09-07T12:20:54;15.55;51.49
65369;HTU21D;51970;53.484;49.488;2023-09-07T12:23:20;15.48;51.91
65369;HTU21D;51970;53.484;49.488;2023-09-07T12:25:46;15.68;50.38
65369;HTU21D;51970;53.484;49.488;2023-09-07T12:28:16;15.59;50.61
65369;HTU21D;51970;53.484;49.488;2023-09-07T12:30:42;15.44;50.77
65369;HTU21D;51970;53.484;49.488;2023-09-07T12:33:10;15.60;50.46
65369;HTU21D;51970;53.484;49.488;2023-09-07T12:35:37;15.88;49.95
65369;HTU21D;51970;53.484;49.488;2023-09-07T12:38:06;15.95;49.71
65369;HTU21D;51970;53.484;49.488;2023-09-07T12:40:33;15.78;49.84
65369;HTU21D;51970;53.484;49.488;2023-09-07T12:42:59;16.05;49.98
65369;HTU21D;51970;53.484;49.488;2023-09-07T12:45:25;15.95;49.93
65369;HTU21D;51970;53.484;49.488;2023-09-07T12:47:51;15.93;49.98
65369;HTU21D;51970;53.484;49.488;2023-09-07T12:50:17;16.05;49.85
65369;HTU21D;51970;53.484;49.488;2023-09-07T12:52:43;16.12;49.76
65369;HTU21D;51970;53.484;49.488;2023-09-07T12:55:09;15.91;50.59
65369;HTU21D;51970;53.484;49.488;2023-09-07T12:57:35;15.77;50.82
65369;HTU21D;51970;53.484;49.488;2023-09-07T13:00:05;15.62;51.11
65369;HTU21D;51970;53.484;49.488;2023-09-07T13:02:31;15.62;50.98
65369;HTU21D;51970;53.484;49.488;2023-09-07T13:04:57;15.49;51.27
65369;HTU21D;51970;53.484;49.488;2023-09-07T13:07:24;15.31;51.28
65369;HTU21D;51970;53.484;49.488;2023-09-07T13:09:50;15.12;52.46
65369;HTU21D;51970;53.484;49.488;2023-09-07T13:12:16;15.19;52.66
65369;HTU21D;51970;53.484;49.488;2023-09-07T13:14:42;15.16;52.60
65369;HTU21D;51970;53.484;49.488;2023-09-07T13:17:12;15.01;52.27
65369;HTU21D;51970;53.484;49.488;2023-09-07T13:19:42;14.96;52.82
65369;HTU21D;51970;53.484;49.488;2023-09-07T13:22:09;14.85;53.59
65369;HTU21D;51970;53.484;49.488;2023-09-07T13:24:35;14.91;53.69
65369;HTU21D;51970;53.484;49.488;2023-09-07T13:27:02;14.97;53.01
65369;HTU21D;51970;53.484;49.488;2023-09-07T13:29:30;15.15;52.60
65369;HTU21D;51970;53.484;49.488;2023-09-07T13:31:58;15.15;52.36
65369;HTU21D;51970;53.484;49.488;2023-09-07T13:34:25;15.15;52.59
65369;HTU21D;51970;53.484;49.488;2023-09-07T13:36:51;14.97;52.78
65369;HTU21D;51970;53.484;49.488;2023-09-07T13:39:17;14.77;53.29
65369;HTU21D;51970;53.484;49.488;2023-09-07T13:41:43;14.75;53.73
65369;HTU21D;51970;53.484;49.488;2023-09-07T13:44:13;14.72;53.87
65369;HTU21D;51970;53.484;49.488;2023-09-07T13:46:39;14.56;54.44
65369;HTU21D;51970;53.484;49.488;2023-09-07T13:49:06;14.49;55.00
65369;HTU21D;51970;53.484;49.488;2023-09-07T13:51:32;14.51;55.44
65369;HTU21D;51970;53.484;49.488;2023-09-07T13:54:08;14.49;54.32
65369;HTU21D;51970;53.484;49.488;2023-09-07T13:56:34;14.52;54.38
65369;HTU21D;51970;53.484;49.488;2023-09-07T13:59:02;14.55;54.33
65369;HTU21D;51970;53.484;49.488;2023-09-07T14:01:28;14.59;53.66
65369;HTU21D;51970;53.484;49.488;2023-09-07T14:03:54;14.64;53.62
65369;HTU21D;51970;53.484;49.488;2023-09-07T14:06:21;14.60;53.60
65369;HTU21D;51970;53.484;49.488;2023-09-07T14:08:50;14.55;53.66
65369;HTU21D;51970;53.484;49.488;2023-09-07T14:11:17;14.53;53.94
65369;HTU21D;51970;53.484;49.488;2023-09-07T14:13:43;14.48;54.15
65369;HTU21D;51970;53.484;49.488;2023-09-07T14:16:10;14.42;54.30
65369;HTU21D;51970;53.484;49.488;2023-09-07T14:18:36;14.39;54.38
65369;HTU21D;51970;53.484;49.488;2023-09-07T14:21:03;14.35;54.26
65369;HTU21D;51970;53.484;49.488;2023-09-07T14:23:29;14.37;54.21
65369;HTU21D;51970;53.484;49.488;2023-09-07T14:25:56;14.30;54.09
65369;HTU21D;51970;53.484;49.488;2023-09-07T14:28:22;14.26;54.36
65369;HTU21D;51970;53.484;49.488;2023-09-07T14:30:48;14.37;54.36
65369;HTU21D;51970;53.484;49.488;2023-09-07T14:33:15;14.49;53.97
65369;HTU21D;51970;53.484;49.488;2023-09-07T14:35:41;14.42;54.11
65369;HTU21D;51970;53.484;49.488;2023-09-07T14:38:07;14.38;54.46
65369;HTU21D;51970;53.484;49.488;2023-09-07T14:40:33;14.33;54.33
65369;HTU21D;51970;53.484;49.488;2023-09-07T14:43:00;14.34;54.20
65369;HTU21D;51970;53.484;49.488;2023-09-07T14:45:26;14.28;54.83
65369;HTU21D;51970;53.484;49.488;2023-09-07T14:47:52;14.27;54.84
65369;HTU21D;51970;53.484;49.488;2023-09-07T14:50:19;14.24;54.59
65369;HTU21D;51970;53.484;49.488;2023-09-07T14:52:45;14.18;54.74
65369;HTU21D;51970;53.484;49.488;2023-09-07T14:55:14;14.09;55.52
65369;HTU21D;51970;53.484;49.488;2023-09-07T14:57:43;14.03;55.81
65369;HTU21D;51970;53.484;49.488;2023-09-07T15:00:09;13.96;56.14
65369;HTU21D;51970;53.484;49.488;2023-09-07T15:02:37;13.94;56.19